Time;durP1;ratioP1;P1;durP2;ratioP2;P2;SDS_P1;SDS_P2;PMS_P1;PMS_P2;Temp;Humidity;BMP_temperature;BMP_pressure;BME280_temperature;BME280_humidity;BME280_pressure;Samples;Min_cycle;Max_cycle;Signal;HPM_P1;HPM_P2
2023/06/15 00:01:46;;;;;;;;;;;;;;;;;;5103667;27;20440;-88
2023/06/15 00:04:33;;;;;;;;;;;;;;;;;;5103328;27;19912;-87
2023/06/15 00:07:19;;;;;;;;;;;;;;;;;;5101789;27;19927;-87
2023/06/15 00:10:06;;;;;;;;;;;;;;;;;;5070023;27;20731;-87
2023/06/15 00:12:52;;;;;;;;;;;;;;;;;;5094254;27;19926;-87
2023/06/15 00:15:39;;;;;;;;;;;;;;;;;;5103998;27;19919;-87
2023/06/15 00:18:26;;;;;;;;;;;;;;;;;;5103740;27;20378;-87
2023/06/15 00:21:13;;;;;;;;;;;;;;;;;;5102109;28;19931;-88
2023/06/15 00:23:59;;;;;;;;;;;;;;;;;;5080797;27;19912;-87
2023/06/15 00:26:46;;;;;;;;;;;;;;;;;;5096544;28;19916;-88
2023/06/15 00:29:32;;;;;;;;;;;;;;;;;;5105351;27;20260;-88
2023/06/15 00:32:19;;;;;;;;;;;;;;;;;;5105379;27;19920;-88
2023/06/15 00:35:05;;;;;;;;;;;;;;;;;;5104245;28;19935;-89
2023/06/15 00:37:52;;;;;;;;;;;;;;;;;;5110172;27;19916;-92
2023/06/15 00:40:38;;;;;;;;;;;;;;;;;;5085243;28;19919;-90
2023/06/15 00:43:25;;;;;;;;;;;;;;;;;;5102484;27;20355;-90
2023/06/15 00:46:12;;;;;;;;;;;;;;;;;;5107694;27;19924;-91
2023/06/15 00:48:59;;;;;;;;;;;;;;;;;;5108784;28;19930;-91
2023/06/15 00:51:46;;;;;;;;;;;;;;;;;;5097922;27;19918;-91
2023/06/15 00:54:33;;;;;;;;;;;;;;;;;;5100840;27;19916;-91
2023/06/15 00:57:24;;;;;;;;;;;;;;;;;;5086434;27;19912;-86
2023/06/15 01:00:10;;;;;;;;;;;;;;;;;;5114941;27;19921;-90
2023/06/15 01:02:57;;;;;;;;;;;;;;;;;;5103341;27;19920;-92
2023/06/15 01:05:44;;;;;;;;;;;;;;;;;;5109574;27;19926;-90
2023/06/15 01:08:32;;;;;;;;;;;;;;;;;;5106786;27;19920;-91
2023/06/15 01:11:19;;;;;;;;;;;;;;;;;;5107979;27;20397;-90
2023/06/15 01:14:05;;;;;;;;;;;;;;;;;;5105372;27;19916;-90
2023/06/15 01:16:52;;;;;;;;;;;;;;;;;;5085572;27;19920;-91
2023/06/15 01:19:39;;;;;;;;;;;;;;;;;;5107297;27;19931;-91
2023/06/15 01:22:29;;;;;;;;;;;;;;;;;;5105845;27;19912;-90
2023/06/15 01:25:16;;;;;;;;;;;;;;;;;;5099276;28;20452;-85
2023/06/15 01:28:02;;;;;;;;;;;;;;;;;;5108855;28;19928;-88
2023/06/15 01:30:49;;;;;;;;;;;;;;;;;;5097322;28;19916;-88
2023/06/15 01:33:35;;;;;;;;;;;;;;;;;;5105606;28;19926;-91
2023/06/15 01:36:22;;;;;;;;;;;;;;;;;;5112137;27;19921;-90
2023/06/15 01:39:08;;;;;;;;;;;;;;;;;;5110061;27;19922;-91
2023/06/15 01:41:55;;;;;;;;;;;;;;;;;;5107909;28;19922;-89
2023/06/15 01:44:41;;;;;;;;;;;;;;;;;;5108503;27;19920;-89
2023/06/15 01:47:28;;;;;;;;;;;;;;;;;;5106848;28;19920;-88
2023/06/15 01:50:14;;;;;;;;;;;;;;;;;;5101293;27;19920;-89
2023/06/15 01:53:01;;;;;;;;;;;;;;;;;;5111342;27;19920;-88
2023/06/15 01:55:47;;;;;;;;;;;;;;;;;;5105560;27;20418;-92
2023/06/15 01:58:35;;;;;;;;;;;;;;;;;;5119008;27;19920;-92
2023/06/15 02:01:21;;;;;;;;;;;;;;;;;;5111433;27;19946;-91
2023/06/15 02:04:08;;;;;;;;;;;;;;;;;;5107451;27;20370;-92
2023/06/15 02:06:56;;;;;;;;;;;;;;;;;;5109764;27;19920;-91
2023/06/15 02:09:43;;;;;;;;;;;;;;;;;;5109618;28;19916;-91
2023/06/15 02:12:30;;;;;;;;;;;;;;;;;;5120036;27;19920;-89
2023/06/15 02:15:16;;;;;;;;;;;;;;;;;;5103269;28;19916;-89
2023/06/15 02:18:03;;;;;;;;;;;;;;;;;;5115476;27;20418;-91
2023/06/15 02:20:50;;;;;;;;;;;;;;;;;;5097112;28;20400;-91
2023/06/15 02:23:37;;;;;;;;;;;;;;;;;;5107475;27;19923;-91
2023/06/15 02:26:23;;;;;;;;;;;;;;;;;;5111372;27;19911;-93
2023/06/15 02:29:10;;;;;;;;;;;;;;;;;;5112978;27;19933;-93
2023/06/15 02:31:56;;;;;;;;;;;;;;;;;;5113839;27;19935;-91
2023/06/15 02:34:43;;;;;;;;;;;;;;;;;;5108743;27;19916;-90
2023/06/15 02:37:30;;;;;;;;;;;;;;;;;;5110060;27;19922;-91
2023/06/15 02:40:16;;;;;;;;;;;;;;;;;;5093243;27;19922;-89
2023/06/15 02:43:03;;;;;;;;;;;;;;;;;;5098562;27;19920;-91
2023/06/15 02:45:49;;;;;;;;;;;;;;;;;;5105486;27;19922;-91
2023/06/15 02:48:37;;;;;;;;;;;;;;;;;;5095244;27;19934;-87
2023/06/15 02:51:24;;;;;;;;;;;;;;;;;;5102901;27;19922;-89
2023/06/15 02:54:10;;;;;;;;;;;;;;;;;;5113939;27;19942;-91
2023/06/15 02:56:57;;;;;;;;;;;;;;;;;;5102497;27;19911;-90
2023/06/15 02:59:44;;;;;;;;;;;;;;;;;;5107647;27;20369;-90
2023/06/15 03:02:31;;;;;;;;;;;;;;;;;;5107260;27;19916;-90
2023/06/15 03:05:18;;;;;;;;;;;;;;;;;;5089947;28;19946;-88
2023/06/15 03:08:05;;;;;;;;;;;;;;;;;;5101498;27;19927;-90
2023/06/15 03:10:52;;;;;;;;;;;;;;;;;;5114476;27;20363;-90
2023/06/15 03:13:39;;;;;;;;;;;;;;;;;;5102760;27;19922;-92
2023/06/15 03:16:26;;;;;;;;;;;;;;;;;;5095787;27;19922;-87
2023/06/15 03:19:12;;;;;;;;;;;;;;;;;;5108860;27;19931;-89
2023/06/15 03:22:00;;;;;;;;;;;;;;;;;;5105177;27;20420;-87
2023/06/15 03:24:49;;;;;;;;;;;;;;;;;;5101696;27;19920;-88
2023/06/15 03:27:37;;;;;;;;;;;;;;;;;;5100242;27;19928;-87
2023/06/15 03:30:24;;;;;;;;;;;;;;;;;;5090327;28;19920;-88
2023/06/15 03:33:13;;;;;;;;;;;;;;;;;;5101763;27;19916;-88
2023/06/15 03:36:01;;;;;;;;;;;;;;;;;;5102561;27;19930;-87
2023/06/15 03:38:47;;;;;;;;;;;;;;;;;;5101907;27;19939;-87
2023/06/15 03:41:37;;;;;;;;;;;;;;;;;;5103980;27;19916;-89
2023/06/15 03:44:23;;;;;;;;;;;;;;;;;;5094968;27;20287;-89
2023/06/15 03:47:10;;;;;;;;;;;;;;;;;;5104434;27;20535;-89
2023/06/15 03:49:56;;;;;;;;;;;;;;;;;;5104139;27;19915;-89
2023/06/15 03:52:43;;;;;;;;;;;;;;;;;;5105846;27;19926;-88
2023/06/15 03:55:29;;;;;;;;;;;;;;;;;;5087372;28;19915;-89
2023/06/15 03:58:16;;;;;;;;;;;;;;;;;;5101204;27;20393;-81
2023/06/15 04:01:06;;;;;;;;;;;;;;;;;;5101104;27;19924;-90
2023/06/15 04:03:52;;;;;;;;;;;;;;;;;;5105466;27;19927;-88
2023/06/15 04:06:46;;;;;;;;;;;;;;;;;;5107635;27;19934;-87
2023/06/15 04:09:32;;;;;;;;;;;;;;;;;;5093679;27;19935;-88
2023/06/15 04:12:19;;;;;;;;;;;;;;;;;;5105960;27;19912;-86
2023/06/15 04:15:05;;;;;;;;;;;;;;;;;;5104405;28;19924;-88
2023/06/15 04:17:52;;;;;;;;;;;;;;;;;;5106352;27;19920;-88
2023/06/15 04:20:38;;;;;;;;;;;;;;;;;;5103329;28;19928;-88
2023/06/15 04:23:25;;;;;;;;;;;;;;;;;;5087064;27;19946;-89
2023/06/15 04:26:13;;;;;;;;;;;;;;;;;;5096086;28;20283;-89
2023/06/15 04:29:00;;;;;;;;;;;;;;;;;;5107042;27;19935;-88
2023/06/15 04:31:46;;;;;;;;;;;;;;;;;;5097336;27;19920;-86
2023/06/15 04:34:34;;;;;;;;;;;;;;;;;;5104361;27;19916;-87
2023/06/15 04:37:23;;;;;;;;;;;;;;;;;;5103456;27;19919;-85
2023/06/15 04:40:10;;;;;;;;;;;;;;;;;;5117516;27;19912;-86
2023/06/15 04:43:02;;;;;;;;;;;;;;;;;;5099664;27;20303;-84
2023/06/15 04:45:49;;;;;;;;;;;;;;;;;;5100392;27;20024;-86
2023/06/15 04:48:36;;;;;;;;;;;;;;;;;;5101128;28;19939;-86
2023/06/15 04:51:23;;;;;;;;;;;;;;;;;;5106038;27;19928;-86
2023/06/15 04:54:09;;;;;;;;;;;;;;;;;;5104865;27;20286;-88
2023/06/15 04:56:57;;;;;;;;;;;;;;;;;;5102507;28;19916;-86
2023/06/15 04:59:43;;;;;;;;;;;;;;;;;;5103732;27;20382;-90
2023/06/15 05:02:30;;;;;;;;;;;;;;;;;;5084284;28;19912;-89
2023/06/15 05:05:16;;;;;;;;;;;;;;;;;;5105656;27;19920;-86
2023/06/15 05:08:02;;;;;;;;;;;;;;;;;;5109378;28;19928;-88
2023/06/15 05:10:49;;;;;;;;;;;;;;;;;;5107500;27;19918;-88
2023/06/15 05:13:36;;;;;;;;;;;;;;;;;;5108363;27;19919;-89
2023/06/15 05:16:22;;;;;;;;;;;;;;;;;;5116214;27;19916;-89
2023/06/15 05:19:09;;;;;;;;;;;;;;;;;;5121213;27;20417;-88
2023/06/15 05:21:55;;;;;;;;;;;;;;;;;;5107503;28;19924;-88
2023/06/15 05:24:42;;;;;;;;;;;;;;;;;;5118049;27;20283;-87
2023/06/15 05:27:28;;;;;;;;;;;;;;;;;;5105432;27;19923;-85
2023/06/15 05:30:15;;;;;;;;;;;;;;;;;;5095358;27;19935;-86
2023/06/15 05:33:02;;;;;;;;;;;;;;;;;;5108106;27;19915;-88
2023/06/15 05:35:48;;;;;;;;;;;;;;;;;;5106919;27;19920;-86
2023/06/15 05:38:35;;;;;;;;;;;;;;;;;;5104532;27;19926;-87
2023/06/15 05:41:21;;;;;;;;;;;;;;;;;;5105504;27;19916;-84
2023/06/15 05:44:07;;;;;;;;;;;;;;;;;;5108197;27;19920;-87
2023/06/15 05:46:54;;;;;;;;;;;;;;;;;;5110622;27;19916;-86
2023/06/15 05:49:41;;;;;;;;;;;;;;;;;;5107610;28;19931;-85
2023/06/15 05:52:27;;;;;;;;;;;;;;;;;;5111920;27;19930;-89
2023/06/15 05:55:17;;;;;;;;;;;;;;;;;;5097139;27;19927;-89
2023/06/15 05:58:03;;;;;;;;;;;;;;;;;;5108132;27;19916;-90
2023/06/15 06:00:50;;;;;;;;;;;;;;;;;;5100919;27;19926;-88
2023/06/15 06:03:36;;;;;;;;;;;;;;;;;;5111064;27;19927;-91
2023/06/15 06:06:23;;;;;;;;;;;;;;;;;;5098916;27;20271;-89
2023/06/15 06:09:09;;;;;;;;;;;;;;;;;;5113577;27;19931;-87
2023/06/15 06:11:56;;;;;;;;;;;;;;;;;;5109916;27;19920;-89
2023/06/15 06:14:42;;;;;;;;;;;;;;;;;;5093163;28;19919;-89
2023/06/15 06:17:29;;;;;;;;;;;;;;;;;;5106762;27;19916;-77
2023/06/15 06:20:15;;;;;;;;;;;;;;;;;;5102611;27;19931;-78
2023/06/15 06:23:03;;;;;;;;;;;;;;;;;;5098703;27;19923;-76
2023/06/15 06:25:49;;;;;;;;;;;;;;;;;;5101864;28;20286;-78
2023/06/15 06:28:36;;;;;;;;;;;;;;;;;;5087308;28;19942;-80
2023/06/15 06:31:22;;;;;;;;;;;;;;;;;;5103254;27;19916;-79
2023/06/15 06:34:09;;;;;;;;;;;;;;;;;;5109714;27;19916;-78
2023/06/15 06:36:55;;;;;;;;;;;;;;;;;;5105107;27;19915;-77
2023/06/15 06:39:42;;;;;;;;;;;;;;;;;;5101878;28;19920;-79
2023/06/15 06:42:28;;;;;;;;;;;;;;;;;;5102553;28;20396;-78
2023/06/15 06:45:15;;;;;;;;;;;;;;;;;;5104652;27;19924;-79
2023/06/15 06:48:01;;;;;;;;;;;;;;;;;;5099363;27;19928;-78
2023/06/15 06:50:48;;;;;;;;;;;;;;;;;;5104405;27;20485;-79
2023/06/15 06:53:34;;;;;;;;;;;;;;;;;;5103607;27;19934;-78
2023/06/15 06:56:22;;;;;;;;;;;;;;;;;;5102289;27;19930;-78
2023/06/15 06:59:09;;;;;;;;;;;;;;;;;;5106705;27;19922;-78
2023/06/15 07:01:55;;;;;;;;;;;;;;;;;;5103952;27;19923;-80
2023/06/15 07:04:42;;;;;;;;;;;;;;;;;;5089997;28;19920;-78
2023/06/15 07:07:28;;;;;;;;;;;;;;;;;;5088300;27;19927;-79
2023/06/15 07:10:15;;;;;;;;;;;;;;;;;;5104597;27;19935;-78
2023/06/15 07:13:02;;;;;;;;;;;;;;;;;;5103782;28;20373;-78
2023/06/15 07:15:49;;;;;;;;;;;;;;;;;;5101099;27;19923;-78
2023/06/15 07:18:36;;;;;;;;;;;;;;;;;;5098614;27;19934;-78
2023/06/15 07:21:22;;;;;;;;;;;;;;;;;;5100886;27;20005;-78
2023/06/15 07:24:09;;;;;;;;;;;;;;;;;;5102588;27;19941;-77
2023/06/15 07:26:56;;;;;;;;;;;;;;;;;;5104846;27;19922;-77
2023/06/15 07:29:42;;;;;;;;;;;;;;;;;;5100899;28;20375;-77
2023/06/15 07:32:29;;;;;;;;;;;;;;;;;;5097415;27;19923;-79
2023/06/15 07:35:16;;;;;;;;;;;;;;;;;;5104556;27;19946;-77
2023/06/15 07:38:02;;;;;;;;;;;;;;;;;;5080431;28;19911;-78
2023/06/15 07:40:49;;;;;;;;;;;;;;;;;;5103694;28;20305;-78
2023/06/15 07:43:35;;;;;;;;;;;;;;;;;;5101311;27;19919;-78
2023/06/15 07:46:22;;;;;;;;;;;;;;;;;;5107008;27;19922;-78
2023/06/15 07:49:08;;;;;;;;;;;;;;;;;;5113424;27;19930;-79
2023/06/15 07:51:55;;;;;;;;;;;;;;;;;;5100150;28;19929;-79
2023/06/15 07:54:41;;;;;;;;;;;;;;;;;;5099467;27;19916;-79
2023/06/15 07:57:28;;;;;;;;;;;;;;;;;;5101212;27;19939;-78
2023/06/15 08:00:14;;;;;;;;;;;;;;;;;;5104017;27;19920;-78
2023/06/15 08:03:01;;;;;;;;;;;;;;;;;;5083022;28;20898;-78
2023/06/15 08:05:47;;;;;;;;;;;;;;;;;;5098239;28;19916;-79
2023/06/15 08:08:34;;;;;;;;;;;;;;;;;;5096380;28;20604;-79
2023/06/15 08:11:21;;;;;;;;;;;;;;;;;;5099775;28;19916;-77
2023/06/15 08:14:07;;;;;;;;;;;;;;;;;;5101416;27;19926;-77
2023/06/15 08:16:53;;;;;;;;;;;;;;;;;;5102443;27;19923;-77
2023/06/15 08:19:48;;;;;;;;;;;;;;;;;;5103000;27;20302;-78
2023/06/15 08:22:39;;;;;;;;;;;;;;;;;;5080559;27;20386;-76
2023/06/15 08:25:28;;;;;;;;;;;;;;;;;;5091152;27;20379;-79
2023/06/15 08:28:14;;;;;;;;;;;;;;;;;;5103677;28;19946;-79
2023/06/15 08:31:04;;;;;;;;;;;;;;;;;;5091215;28;19920;-79
2023/06/15 08:33:51;;;;;;;;;;;;;;;;;;5101105;28;19923;-80
2023/06/15 08:39:50;;;;;;;;;;;;;;;;;;5092513;27;20282;-79
2023/06/15 08:42:36;;;;;;;;;;;;;;;;;;5061264;27;20772;-79
2023/06/15 08:45:23;;;;;;;;;;;;;;;;;;5059332;27;19968;-79
2023/06/15 08:48:13;;;;;;;;;;;;;;;;;;5070683;27;19924;-80
2023/06/15 08:51:00;;;;;;;;;;;;;;;;;;5118376;27;19916;-78
2023/06/15 08:53:47;;;;;;;;;;;;;;;;;;5099134;28;19923;-79
2023/06/15 08:56:37;;;;;;;;;;;;;;;;;;5098384;27;19916;-79
2023/06/15 08:59:24;;;;;;;;;;;;;;;;;;5057838;27;19922;-79
2023/06/15 09:02:11;;;;;;;;;;;;;;;;;;5091338;28;19942;-79
2023/06/15 09:04:57;;;;;;;;;;;;;;;;;;5109256;27;20298;-79
2023/06/15 09:07:44;;;;;;;;;;;;;;;;;;5106021;27;19916;-79
2023/06/15 09:10:33;;;;;;;;;;;;;;;;;;5105233;27;20404;-78
2023/06/15 09:13:21;;;;;;;;;;;;;;;;;;5103402;27;20411;-78
2023/06/15 09:16:07;;;;;;;;;;;;;;;;;;5103390;28;20286;-79
2023/06/15 09:18:54;;;;;;;;;;;;;;;;;;5085377;27;20381;-78
2023/06/15 09:21:58;;;;;;;;;;;;;;;;;;;;;
2023/06/15 09:24:46;;;;;;;;;;;;;;;;;;5085708;27;19920;-79
2023/06/15 09:27:32;;;;;;;;;;;;;;;;;;5083608;27;20264;-79
2023/06/15 09:30:19;;;;;;;;;;;;;;;;;;5085573;27;19935;-77
2023/06/15 09:33:05;;;;;;;;;;;;;;;;;;5085531;28;19920;-79
2023/06/15 09:35:52;;;;;;;;;;;;;;;;;;5083931;27;20283;-79
2023/06/15 09:38:40;;;;;;;;;;;;;;;;;;5087241;28;19919;-78
2023/06/15 09:41:27;;;;;;;;;;;;;;;;;;5085925;27;20315;-77
2023/06/15 09:44:13;;;;;;;;;;;;;;;;;;5085542;27;20298;-78
2023/06/15 09:47:00;;;;;;;;;;;;;;;;;;5085616;27;19920;-79
2023/06/15 09:49:46;;;;;;;;;;;;;;;;;;5078188;28;19924;-79
2023/06/15 09:52:36;;;;;;;;;;;;;;;;;;5084816;28;19912;-78
2023/06/15 09:55:22;;;;;;;;;;;;;;;;;;5081610;28;19923;-78
2023/06/15 09:58:09;;;;;;;;;;;;;;;;;;5081188;27;19916;-78
2023/06/15 10:00:57;;;;;;;;;;;;;;;;;;5078321;27;19920;-79
2023/06/15 10:03:43;;;;;;;;;;;;;;;;;;5083538;27;19931;-78
2023/06/15 10:06:30;;;;;;;;;;;;;;;;;;5082250;27;19927;-78
2023/06/15 10:09:17;;;;;;;;;;;;;;;;;;5092458;27;19935;-78
2023/06/15 10:12:03;;;;;;;;;;;;;;;;;;5085878;28;19997;-78
2023/06/15 10:14:50;;;;;;;;;;;;;;;;;;5084855;28;20389;-78
2023/06/15 10:17:40;;;;;;;;;;;;;;;;;;5084587;27;19920;-78
2023/06/15 10:20:28;;;;;;;;;;;;;;;;;;5102697;27;19927;-78
2023/06/15 10:23:15;;;;;;;;;;;;;;;;;;5097635;27;20441;-78
2023/06/15 10:26:02;;;;;;;;;;;;;;;;;;5104719;27;19916;-78
2023/06/15 10:28:48;;;;;;;;;;;;;;;;;;5106859;27;19927;-79
2023/06/15 10:31:35;;;;;;;;;;;;;;;;;;5103818;27;19926;-79
2023/06/15 10:34:21;;;;;;;;;;;;;;;;;;5105204;27;19919;-77
2023/06/15 10:37:08;;;;;;;;;;;;;;;;;;5082580;28;20302;-77
2023/06/15 10:39:54;;;;;;;;;;;;;;;;;;5096100;28;19922;-76
2023/06/15 10:42:41;;;;;;;;;;;;;;;;;;5100869;27;19923;-77
2023/06/15 10:45:31;;;;;;;;;;;;;;;;;;5104103;27;19916;-78
2023/06/15 10:48:17;;;;;;;;;;;;;;;;;;5105819;28;19966;-77
2023/06/15 10:51:04;;;;;;;;;;;;;;;;;;5089083;28;19926;-77
2023/06/15 10:53:51;;;;;;;;;;;;;;;;;;5086784;28;19916;-76
2023/06/15 10:56:37;;;;;;;;;;;;;;;;;;5102001;27;19920;-76
2023/06/15 10:59:24;;;;;;;;;;;;;;;;;;5101534;27;19923;-77
2023/06/15 11:02:10;;;;;;;;;;;;;;;;;;5102883;28;19955;-77
2023/06/15 11:04:57;;;;;;;;;;;;;;;;;;5102819;27;20299;-76
2023/06/15 11:07:43;;;;;;;;;;;;;;;;;;5104617;27;19919;-76
2023/06/15 11:10:31;;;;;;;;;;;;;;;;;;5091728;27;19935;-77
2023/06/15 11:13:18;;;;;;;;;;;;;;;;;;5106585;27;19922;-77
2023/06/15 11:16:04;;;;;;;;;;;;;;;;;;5089549;27;19919;-77
2023/06/15 11:18:51;;;;;;;;;;;;;;;;;;5110654;27;19920;-77
2023/06/15 11:21:40;;;;;;;;;;;;;;;;;;5104297;27;19920;-77
2023/06/15 11:24:26;;;;;;;;;;;;;;;;;;5100896;27;19925;-77
2023/06/15 11:27:13;;;;;;;;;;;;;;;;;;5095388;27;19926;-78
2023/06/15 11:30:00;;;;;;;;;;;;;;;;;;5087073;27;20376;-78
2023/06/15 11:32:46;;;;;;;;;;;;;;;;;;5103576;27;20487;-77
2023/06/15 11:35:33;;;;;;;;;;;;;;;;;;5101143;27;19920;-77
2023/06/15 11:38:19;;;;;;;;;;;;;;;;;;5098233;28;19916;-77
2023/06/15 11:41:06;;;;;;;;;;;;;;;;;;5103171;27;19930;-77
2023/06/15 11:43:53;;;;;;;;;;;;;;;;;;5103351;27;19926;-77
2023/06/15 11:46:40;;;;;;;;;;;;;;;;;;5102305;28;19927;-77
2023/06/15 11:49:27;;;;;;;;;;;;;;;;;;5097631;27;20302;-77
2023/06/15 11:52:13;;;;;;;;;;;;;;;;;;5103630;27;19920;-77
2023/06/15 11:55:00;;;;;;;;;;;;;;;;;;5089883;28;20397;-77
2023/06/15 11:57:46;;;;;;;;;;;;;;;;;;5099333;27;19919;-76
2023/06/15 12:00:32;;;;;;;;;;;;;;;;;;5087923;28;19916;-77
2023/06/15 12:03:19;;;;;;;;;;;;;;;;;;5086410;27;19916;-77
2023/06/15 12:06:06;;;;;;;;;;;;;;;;;;5104083;27;19927;-76
2023/06/15 12:08:54;;;;;;;;;;;;;;;;;;5095848;28;19931;-77
2023/06/15 12:11:40;;;;;;;;;;;;;;;;;;5100382;27;20279;-77
2023/06/15 12:14:27;;;;;;;;;;;;;;;;;;5086804;27;19920;-76
2023/06/15 12:17:13;;;;;;;;;;;;;;;;;;5103195;27;19930;-77
2023/06/15 12:20:00;;;;;;;;;;;;;;;;;;5101371;27;19969;-76
2023/06/15 12:22:46;;;;;;;;;;;;;;;;;;5102116;27;19932;-77
2023/06/15 12:25:34;;;;;;;;;;;;;;;;;;5104628;27;19916;-76
2023/06/15 12:28:21;;;;;;;;;;;;;;;;;;5099072;27;19927;-76
2023/06/15 12:31:08;;;;;;;;;;;;;;;;;;5082891;27;19923;-78
2023/06/15 12:33:55;;;;;;;;;;;;;;;;;;5096577;27;19920;-77
2023/06/15 12:36:41;;;;;;;;;;;;;;;;;;5101681;27;19920;-77
2023/06/15 12:39:29;;;;;;;;;;;;;;;;;;5105358;27;19919;-78
2023/06/15 12:42:15;;;;;;;;;;;;;;;;;;5099365;27;19931;-75
2023/06/15 12:45:02;;;;;;;;;;;;;;;;;;5100039;27;20298;-78
2023/06/15 12:47:49;;;;;;;;;;;;;;;;;;5081856;28;19926;-76
2023/06/15 12:50:36;;;;;;;;;;;;;;;;;;5099366;27;21151;-77
2023/06/15 12:53:22;;;;;;;;;;;;;;;;;;5095024;27;19919;-76
2023/06/15 12:56:09;;;;;;;;;;;;;;;;;;5091426;28;19924;-76
2023/06/15 12:58:56;;;;;;;;;;;;;;;;;;5099398;28;19920;-78
2023/06/15 13:01:42;;;;;;;;;;;;;;;;;;5098077;27;19931;-78
2023/06/15 13:04:29;;;;;;;;;;;;;;;;;;5100556;28;19975;-83
2023/06/15 13:07:18;;;;;;;;;;;;;;;;;;5101014;27;20378;-85
2023/06/15 13:10:05;;;;;;;;;;;;;;;;;;5069787;27;19998;-84
2023/06/15 13:12:53;;;;;;;;;;;;;;;;;;5028085;28;20584;-80
2023/06/15 13:15:40;;;;;;;;;;;;;;;;;;5074590;28;19920;-84
2023/06/15 13:18:27;;;;;;;;;;;;;;;;;;5098087;27;19920;-82
2023/06/15 13:21:13;;;;;;;;;;;;;;;;;;5101240;27;20318;-85
2023/06/15 13:24:00;;;;;;;;;;;;;;;;;;5101238;27;19919;-83
2023/06/15 13:26:46;;;;;;;;;;;;;;;;;;5089204;28;21418;-83
2023/06/15 13:29:33;;;;;;;;;;;;;;;;;;5099622;27;19934;-83
2023/06/15 13:32:19;;;;;;;;;;;;;;;;;;5089420;27;19919;-81
2023/06/15 13:35:06;;;;;;;;;;;;;;;;;;5103026;27;19927;-83
2023/06/15 13:37:52;;;;;;;;;;;;;;;;;;5103872;28;19924;-82
2023/06/15 13:40:39;;;;;;;;;;;;;;;;;;5101663;27;20359;-83
2023/06/15 13:43:26;;;;;;;;;;;;;;;;;;5100921;27;19915;-84
2023/06/15 13:46:13;;;;;;;;;;;;;;;;;;5101287;27;20298;-82
2023/06/15 13:49:00;;;;;;;;;;;;;;;;;;5102962;27;19924;-83
2023/06/15 13:51:46;;;;;;;;;;;;;;;;;;5103158;28;19919;-82
2023/06/15 13:54:33;;;;;;;;;;;;;;;;;;5103786;27;20438;-80
2023/06/15 13:57:19;;;;;;;;;;;;;;;;;;5107909;27;19923;-82
2023/06/15 14:00:07;;;;;;;;;;;;;;;;;;5100517;28;20294;-83
2023/06/15 14:02:54;;;;;;;;;;;;;;;;;;5102179;27;19922;-83
2023/06/15 14:05:40;;;;;;;;;;;;;;;;;;5101698;28;19911;-84
2023/06/15 14:08:27;;;;;;;;;;;;;;;;;;5107404;27;20338;-83
2023/06/15 14:11:13;;;;;;;;;;;;;;;;;;5104796;27;20390;-82
2023/06/15 14:14:00;;;;;;;;;;;;;;;;;;5105260;27;19924;-83
2023/06/15 14:16:46;;;;;;;;;;;;;;;;;;5109473;27;19952;-83
2023/06/15 14:19:33;;;;;;;;;;;;;;;;;;5103768;27;19928;-82
2023/06/15 14:22:19;;;;;;;;;;;;;;;;;;5103341;28;19926;-83
2023/06/15 14:25:06;;;;;;;;;;;;;;;;;;5105921;27;19922;-82
2023/06/15 14:27:52;;;;;;;;;;;;;;;;;;5102933;27;20367;-83
2023/06/15 14:30:39;;;;;;;;;;;;;;;;;;5104154;27;20378;-83
2023/06/15 14:33:27;;;;;;;;;;;;;;;;;;5094972;28;20314;-83
2023/06/15 14:36:14;;;;;;;;;;;;;;;;;;5106883;27;19919;-83
2023/06/15 14:39:01;;;;;;;;;;;;;;;;;;5088233;28;19916;-83
2023/06/15 14:41:48;;;;;;;;;;;;;;;;;;5111244;27;19915;-84
2023/06/15 14:44:35;;;;;;;;;;;;;;;;;;5104439;27;20644;-85
2023/06/15 14:47:21;;;;;;;;;;;;;;;;;;5104955;28;19916;-84
2023/06/15 14:50:08;;;;;;;;;;;;;;;;;;5101179;27;19931;-84
2023/06/15 14:52:54;;;;;;;;;;;;;;;;;;5119419;27;19931;-84
2023/06/15 14:55:41;;;;;;;;;;;;;;;;;;5102659;28;19924;-84
2023/06/15 14:58:28;;;;;;;;;;;;;;;;;;5090449;28;19920;-84
2023/06/15 15:01:14;;;;;;;;;;;;;;;;;;5082173;27;19924;-83
2023/06/15 15:04:01;;;;;;;;;;;;;;;;;;5101333;27;19916;-87
2023/06/15 15:06:47;;;;;;;;;;;;;;;;;;5102406;27;19924;-83
2023/06/15 15:09:34;;;;;;;;;;;;;;;;;;5083950;27;19939;-86
2023/06/15 15:12:20;;;;;;;;;;;;;;;;;;5100571;27;19920;-84
2023/06/15 15:15:07;;;;;;;;;;;;;;;;;;5098765;27;19930;-83
2023/06/15 15:17:53;;;;;;;;;;;;;;;;;;5099950;28;19923;-84
2023/06/15 15:20:40;;;;;;;;;;;;;;;;;;5101007;27;20032;-82
2023/06/15 15:23:27;;;;;;;;;;;;;;;;;;5104325;27;19942;-83
2023/06/15 15:26:13;;;;;;;;;;;;;;;;;;5102160;28;19916;-83
2023/06/15 15:29:00;;;;;;;;;;;;;;;;;;5106844;27;19933;-84
2023/06/15 15:31:46;;;;;;;;;;;;;;;;;;5101385;28;19955;-84
2023/06/15 15:34:33;;;;;;;;;;;;;;;;;;5090254;27;19921;-85
2023/06/15 15:37:19;;;;;;;;;;;;;;;;;;5115010;27;20392;-84
2023/06/15 15:40:06;;;;;;;;;;;;;;;;;;5105255;27;19922;-85
2023/06/15 15:42:52;;;;;;;;;;;;;;;;;;5101446;27;19942;-86
2023/06/15 15:45:39;;;;;;;;;;;;;;;;;;5095463;28;20342;-86
2023/06/15 15:48:25;;;;;;;;;;;;;;;;;;5097986;28;19930;-86
2023/06/15 15:51:12;;;;;;;;;;;;;;;;;;5093628;27;19927;-87
2023/06/15 15:54:01;;;;;;;;;;;;;;;;;;5101021;27;19916;-87
2023/06/15 15:56:48;;;;;;;;;;;;;;;;;;5106507;27;19919;-89
2023/06/15 15:59:34;;;;;;;;;;;;;;;;;;5113603;27;20294;-89
2023/06/15 16:02:21;;;;;;;;;;;;;;;;;;5101002;27;19917;-88
2023/06/15 16:05:08;;;;;;;;;;;;;;;;;;5102693;28;19923;-86
2023/06/15 16:07:55;;;;;;;;;;;;;;;;;;5099993;28;20014;-87
2023/06/15 16:10:41;;;;;;;;;;;;;;;;;;5107863;27;19932;-88
2023/06/15 16:13:28;;;;;;;;;;;;;;;;;;5109560;27;19924;-87
2023/06/15 16:16:14;;;;;;;;;;;;;;;;;;5091289;27;19941;-86
2023/06/15 16:19:01;;;;;;;;;;;;;;;;;;5098309;28;20404;-85
2023/06/15 16:21:47;;;;;;;;;;;;;;;;;;5085349;28;19920;-85
2023/06/15 16:24:34;;;;;;;;;;;;;;;;;;5099597;27;19922;-86
2023/06/15 16:27:20;;;;;;;;;;;;;;;;;;5102122;27;20413;-85
2023/06/15 16:30:07;;;;;;;;;;;;;;;;;;5096065;28;19927;-86
2023/06/15 16:32:53;;;;;;;;;;;;;;;;;;5100625;27;19920;-85
2023/06/15 16:35:40;;;;;;;;;;;;;;;;;;5101296;27;19920;-85
2023/06/15 16:38:26;;;;;;;;;;;;;;;;;;5101567;27;20295;-86
2023/06/15 16:41:13;;;;;;;;;;;;;;;;;;5111850;27;19955;-85
2023/06/15 16:43:59;;;;;;;;;;;;;;;;;;5102207;27;20317;-84
2023/06/15 16:46:48;;;;;;;;;;;;;;;;;;5105004;27;19915;-84
2023/06/15 16:49:35;;;;;;;;;;;;;;;;;;5101874;27;19927;-84
2023/06/15 16:52:22;;;;;;;;;;;;;;;;;;5101771;28;19931;-86
2023/06/15 16:55:08;;;;;;;;;;;;;;;;;;5099323;27;19931;-85
2023/06/15 16:57:55;;;;;;;;;;;;;;;;;;5099020;28;19920;-86
2023/06/15 17:00:41;;;;;;;;;;;;;;;;;;5100134;28;19919;-86
2023/06/15 17:03:29;;;;;;;;;;;;;;;;;;5098886;28;19926;-86
2023/06/15 17:06:15;;;;;;;;;;;;;;;;;;5104937;27;19919;-85
2023/06/15 17:09:02;;;;;;;;;;;;;;;;;;5102567;27;19920;-85
2023/06/15 17:11:49;;;;;;;;;;;;;;;;;;5101177;27;19916;-86
2023/06/15 17:14:36;;;;;;;;;;;;;;;;;;5102892;27;19941;-85
2023/06/15 17:17:22;;;;;;;;;;;;;;;;;;5108180;27;19961;-85
2023/06/15 17:20:08;;;;;;;;;;;;;;;;;;5104055;28;19974;-86
2023/06/15 17:22:55;;;;;;;;;;;;;;;;;;5106309;28;21019;-85
2023/06/15 17:25:41;;;;;;;;;;;;;;;;;;5101648;27;19919;-86
2023/06/15 17:28:28;;;;;;;;;;;;;;;;;;5104249;28;19920;-86
2023/06/15 17:31:15;;;;;;;;;;;;;;;;;;5106669;27;19939;-85
2023/06/15 17:34:01;;;;;;;;;;;;;;;;;;5107132;28;20044;-86
2023/06/15 17:36:48;;;;;;;;;;;;;;;;;;5098625;27;19920;-86
2023/06/15 17:39:34;;;;;;;;;;;;;;;;;;5107976;27;19915;-87
2023/06/15 17:42:21;;;;;;;;;;;;;;;;;;5107171;27;19916;-84
2023/06/15 17:45:07;;;;;;;;;;;;;;;;;;5099702;27;19922;-84
2023/06/15 17:47:54;;;;;;;;;;;;;;;;;;5104393;27;19916;-85
2023/06/15 17:50:41;;;;;;;;;;;;;;;;;;5105832;27;19924;-84
2023/06/15 17:53:27;;;;;;;;;;;;;;;;;;5104154;27;19919;-84
2023/06/15 17:56:14;;;;;;;;;;;;;;;;;;5086008;28;19920;-82
2023/06/15 17:59:01;;;;;;;;;;;;;;;;;;5103730;27;19952;-82
2023/06/15 18:01:47;;;;;;;;;;;;;;;;;;5105970;27;19916;-79
2023/06/15 18:04:34;;;;;;;;;;;;;;;;;;5112678;27;20275;-78
2023/06/15 18:07:20;;;;;;;;;;;;;;;;;;5103881;27;19920;-78
2023/06/15 18:10:07;;;;;;;;;;;;;;;;;;5104400;27;19955;-78
2023/06/15 18:12:53;;;;;;;;;;;;;;;;;;5094546;27;19916;-78
2023/06/15 18:15:40;;;;;;;;;;;;;;;;;;5105811;27;19920;-78
2023/06/15 18:18:26;;;;;;;;;;;;;;;;;;5104020;27;19922;-78
2023/06/15 18:21:13;;;;;;;;;;;;;;;;;;5113662;27;20425;-78
2023/06/15 18:23:59;;;;;;;;;;;;;;;;;;5093717;28;19919;-77
2023/06/15 18:26:46;;;;;;;;;;;;;;;;;;5100957;27;19911;-78
2023/06/15 18:29:32;;;;;;;;;;;;;;;;;;5101949;27;20447;-78
2023/06/15 18:32:19;;;;;;;;;;;;;;;;;;5102126;28;19927;-78
2023/06/15 18:35:05;;;;;;;;;;;;;;;;;;5103134;27;19920;-78
2023/06/15 18:37:52;;;;;;;;;;;;;;;;;;5102087;27;19920;-78
2023/06/15 18:40:38;;;;;;;;;;;;;;;;;;5095411;27;20643;-78
2023/06/15 18:43:25;;;;;;;;;;;;;;;;;;5103240;27;19920;-77
2023/06/15 18:46:11;;;;;;;;;;;;;;;;;;5103169;28;20233;-78
2023/06/15 18:48:58;;;;;;;;;;;;;;;;;;5104308;28;19923;-78
2023/06/15 18:51:44;;;;;;;;;;;;;;;;;;5106697;27;19930;-78
2023/06/15 18:54:31;;;;;;;;;;;;;;;;;;5104829;27;20395;-78
2023/06/15 18:57:18;;;;;;;;;;;;;;;;;;5102249;27;19912;-78
2023/06/15 19:00:06;;;;;;;;;;;;;;;;;;5105082;27;19919;-78
2023/06/15 19:02:52;;;;;;;;;;;;;;;;;;5105257;27;19916;-78